Airfield :
LOGIN :

Register | Disclaimer

   EN    FR    IT 

 










Legend :    VFR   Marginal VFR   IFR   Intensive IFR   Very Intensive IFR
Visi :
Ceiling :
>= 8 km
>= 3000ft
5 to 8 km
1000 to 3000 ft
1500m to 5 km
500 to 1000 ft
800 to 1500m
200 to 500 ft
< 800m
< 200 ft
Symbols :   Thunderstorms  Fog  Heavy snow  Heavy precipitations  Wind > 20 kt
SIGMETs :     Misc.  Thunderstorms  Icing  Turbulence  Mountain Waves  Volcanic Ashes







- Airport Elevation : 13 ft
- IATA code : OST


EBOS - Oostend bruges Int.

CURRENT METAR :
  • 111850Z 21003KT 9999 BKN042 04/02 Q1025 NOSIG

EXPIRED METARs :
  • 111820Z 20003KT 9999 BKN042 04/02 Q1025 NOSIG
  • 111750Z 21005KT 9999 BKN042 05/02 Q1025 NOSIG
  • 111720Z 21003KT 9999 BKN034 05/02 Q1025 NOSIG
  • 111650Z 18004KT 9999 BKN034 05/02 Q1025 NOSIG
  • 111620Z VRB02KT 9999 SCT034 06/02 Q1025 NOSIG

TAF TAF EBOS
Valid from the 11 at 18:00 until the 13 at 00:00 UTC


111710Z 1118/1224 19004KT 9999 FEW030 SCT040
BECMG 1123/1201 4500 BR
TEMPO 1202/1209 2000 MIFG
PROB40
TEMPO 1202/1209 0150 FZFG VV002
BECMG 1209/1211 6000 NSW SCT006
BECMG 1220/1222 10010KT
No reported NOTAMs for that airfield.



MET'MAP, your aeronautical weather chart ! - Copyright ORBIFLY December 2007 - Disclaimer

ORBIFLY MET'MAP TEAM :

Programming & Development : Alexandra Zaïnal
Concept & Development : Baudouin d'Aumeries
Co-Development & Prog : Marc-Olivier Méhu
Technical & hardware support : Manuel Goepfert

Contact : metmap@orbifly.com




SOURCES & CREDITS :

   NOAA